Time;durP1;ratioP1;P1;durP2;ratioP2;P2;SDS_P1;SDS_P2;PMS_P1;PMS_P2;Temp;Humidity;BMP_temperature;BMP_pressure;BME280_temperature;BME280_humidity;BME280_pressure;Samples;Min_cycle;Max_cycle;Signal;HPM_P1;HPM_P2
2023/03/21 00:00:38;;;;;;;24.73;23.10;;;;;;;14.84;56.12;101561.72;5012996;28;20034;-77
2023/03/21 00:03:03;;;;;;;23.38;22.00;;;;;;;14.83;56.45;101555.47;5014191;28;20452;-78
2023/03/21 00:05:29;;;;;;;27.48;25.48;;;;;;;14.83;56.26;101558.19;5013626;28;20029;-77
2023/03/21 00:07:55;;;;;;;24.75;23.20;;;;;;;14.83;56.28;101566.34;5014056;28;20030;-78
2023/03/21 00:10:20;;;;;;;25.85;24.10;;;;;;;14.83;55.96;101546.47;5014247;28;20034;-77
2023/03/21 00:12:49;;;;;;;25.88;24.27;;;;;;;14.82;56.21;101545.66;5014185;28;20486;-79
2023/03/21 00:15:17;;;;;;;25.33;23.48;;;;;;;14.81;56.27;101544.00;5013573;28;20438;-78
2023/03/21 00:17:43;;;;;;;24.60;22.95;;;;;;;14.82;56.34;101533.97;5013714;28;20041;-78
2023/03/21 00:20:14;;;;;;;27.77;25.98;;;;;;;14.83;56.26;101535.59;5014161;28;20038;-78
2023/03/21 00:22:40;;;;;;;26.20;24.42;;;;;;;14.82;56.14;101536.69;5013691;28;20446;-78
2023/03/21 00:25:07;;;;;;;26.92;24.95;;;;;;;14.81;56.02;101533.13;5014496;28;20037;-78
2023/03/21 00:27:33;;;;;;;27.02;24.90;;;;;;;14.82;56.37;101528.53;5013902;28;20116;-79
2023/03/21 00:29:58;;;;;;;25.63;23.95;;;;;;;14.81;56.22;101532.31;5013358;28;20030;-79
2023/03/21 00:32:24;;;;;;;27.92;25.75;;;;;;;14.81;55.98;101529.59;5013545;28;20061;-78
2023/03/21 00:34:50;;;;;;;26.95;24.60;;;;;;;14.81;56.12;101521.44;5013870;28;20481;-77
2023/03/21 00:37:17;;;;;;;25.67;23.75;;;;;;;14.80;56.40;101517.88;5013666;28;20038;-79
2023/03/21 00:39:47;;;;;;;25.95;24.35;;;;;;;14.80;56.37;101525.22;5013548;28;20041;-77
2023/03/21 00:42:12;;;;;;;25.33;23.52;;;;;;;14.81;56.25;101513.25;5013892;28;20569;-77
2023/03/21 00:44:39;;;;;;;28.33;25.90;;;;;;;14.80;56.13;101509.72;5013176;28;20117;-78
2023/03/21 00:47:05;;;;;;;25.98;24.17;;;;;;;14.80;56.18;101506.19;5013449;28;20105;-77
2023/03/21 00:49:32;;;;;;;29.48;27.38;;;;;;;14.80;56.38;101504.28;5013144;28;20084;-76
2023/03/21 00:52:07;;;;;;;27.55;25.13;;;;;;;14.80;56.10;101498.03;5013327;28;20025;-78
2023/03/21 00:54:34;;;;;;;28.33;26.13;;;;;;;14.79;56.04;101494.50;5013719;28;20022;-79
2023/03/21 00:57:00;;;;;;;27.25;24.63;;;;;;;14.79;56.07;101493.66;5014194;28;20539;-76
2023/03/21 00:59:26;;;;;;;28.08;26.10;;;;;;;14.79;56.46;101485.50;5013776;28;20057;-78
2023/03/21 01:01:52;;;;;;;24.15;22.70;;;;;;;14.79;55.99;101488.22;5013689;28;20466;-77
2023/03/21 01:04:18;;;;;;;25.92;24.33;;;;;;;14.79;56.03;101488.22;5013333;28;20045;-77
2023/03/21 01:06:44;;;;;;;27.73;25.58;;;;;;;14.79;56.38;101485.50;5012109;28;20026;-78
2023/03/21 01:09:21;;;;;;;26.88;24.83;;;;;;;14.77;56.20;101480.31;5012268;28;20052;-77
2023/03/21 01:11:47;;;;;;;25.42;23.73;;;;;;;14.79;56.41;101480.91;5013214;28;20026;-78
2023/03/21 01:14:15;;;;;;;27.25;25.25;;;;;;;14.78;56.32;101478.41;5013893;28;20065;-77
2023/03/21 01:16:41;;;;;;;27.10;25.02;;;;;;;14.78;56.30;101470.25;5014478;28;20458;-77
2023/03/21 01:19:07;;;;;;;23.67;22.02;;;;;;;14.79;56.11;101477.34;5016954;28;20036;-78
2023/03/21 01:21:33;;;;;;;24.63;22.85;;;;;;;14.78;56.42;101470.25;5016791;28;20125;-77
2023/03/21 01:24:00;;;;;;;27.33;25.30;;;;;;;14.78;56.32;101467.53;5017586;28;20117;-77
2023/03/21 01:26:26;;;;;;;27.65;25.77;;;;;;;14.78;56.21;101464.81;5016776;28;20034;-75
2023/03/21 01:28:51;;;;;;;24.80;23.30;;;;;;;14.78;56.28;101459.38;5016800;28;20053;-78
2023/03/21 01:31:17;;;;;;;26.88;24.98;;;;;;;14.76;56.06;101458.81;5016605;28;20388;-77
2023/03/21 01:33:43;;;;;;;27.55;25.40;;;;;;;14.76;56.20;101464.25;5016573;28;20444;-77
2023/03/21 01:36:15;;;;;;;26.63;24.70;;;;;;;14.77;56.08;101455.03;5016515;28;20052;-77
2023/03/21 01:38:42;;;;;;;25.92;24.05;;;;;;;14.76;56.30;101454.19;5016838;28;20061;-78
2023/03/21 01:41:17;;;;;;;25.42;23.73;;;;;;;14.76;56.07;101450.66;5017283;28;20132;-77
2023/03/21 01:43:43;;;;;;;28.20;26.17;;;;;;;14.76;56.36;101442.50;5016224;28;20444;-78
2023/03/21 01:46:30;;;;;;;26.02;24.42;;;;;;;14.73;56.15;101443.00;5016627;28;20042;-78
2023/03/21 01:49:24;;;;;;;25.27;23.47;;;;;;;14.70;56.21;101450.59;5016959;28;20113;-76
2023/03/21 01:51:55;;;;;;;25.90;24.27;;;;;;;14.71;56.38;101441.34;5012074;28;20124;-78
2023/03/21 01:54:25;;;;;;;24.98;23.33;;;;;;;14.71;56.26;101441.34;5016245;28;20501;-76
2023/03/21 01:56:55;;;;;;;25.63;23.88;;;;;;;14.73;56.10;101448.44;5016959;28;20389;-78
2023/03/21 01:59:28;;;;;;;23.67;22.13;;;;;;;14.72;56.12;101436.75;5016429;28;20026;-76
2023/03/21 02:02:05;;;;;;;26.30;24.35;;;;;;;14.73;56.22;101432.94;5015421;28;20033;-77
2023/03/21 02:04:32;;;;;;;27.02;25.20;;;;;;;14.72;56.10;101431.31;5016051;28;20033;-78
2023/03/21 02:07:03;;;;;;;25.15;23.35;;;;;;;14.72;56.09;101434.03;5016135;28;20045;-78
2023/03/21 02:09:32;;;;;;;25.67;23.67;;;;;;;14.72;56.06;101431.31;5015369;28;20022;-74
2023/03/21 02:11:59;;;;;;;24.80;23.13;;;;;;;14.71;56.27;101430.47;5015828;28;20030;-78
2023/03/21 02:14:25;;;;;;;27.42;25.60;;;;;;;14.71;56.13;101427.75;5015671;28;20053;-78
2023/03/21 02:17:06;;;;;;;24.95;23.25;;;;;;;14.70;56.11;101419.84;5015563;28;20395;-76
2023/03/21 02:19:50;;;;;;;25.23;23.60;;;;;;;14.68;56.44;101422.81;5015505;28;20555;-78
2023/03/21 02:22:45;;;;;;;24.98;23.30;;;;;;;14.67;56.20;101412.22;5016105;28;20100;-77
2023/03/21 02:25:34;;;;;;;24.60;22.90;;;;;;;14.67;56.37;101409.50;5014745;28;20490;-78
2023/03/21 02:28:14;;;;;;;25.33;23.42;;;;;;;14.66;56.19;101408.66;5014644;28;20029;-78
2023/03/21 02:30:56;;;;;;;26.00;24.02;;;;;;;14.65;56.33;101407.03;5015503;28;20026;-77
2023/03/21 02:33:49;;;;;;;25.52;23.58;;;;;;;14.66;56.13;101405.13;5016120;28;20454;-77
2023/03/21 02:36:36;;;;;;;24.20;22.45;;;;;;;14.63;56.58;101394.75;5015606;28;20435;-77
2023/03/21 02:39:22;;;;;;;23.52;21.88;;;;;;;14.64;56.23;101401.81;5016454;28;20029;-77
2023/03/21 02:42:09;;;;;;;26.63;24.50;;;;;;;14.62;56.29;101393.94;5015828;28;20134;-76
2023/03/21 02:44:45;;;;;;;26.38;24.58;;;;;;;14.63;56.38;101395.56;5015053;28;20030;-77
2023/03/21 02:47:38;;;;;;;24.60;22.92;;;;;;;14.61;56.25;101388.75;5015900;28;20509;-77
2023/03/21 02:50:29;;;;;;;23.23;21.73;;;;;;;14.63;56.08;101392.03;5015808;28;20386;-76
2023/03/21 02:52:56;;;;;;;22.90;21.50;;;;;;;14.64;56.26;101385.50;5007646;28;20440;-77
2023/03/21 02:55:24;;;;;;;24.23;22.70;;;;;;;14.65;56.56;101381.72;5015298;28;20030;-76
2023/03/21 02:57:54;;;;;;;25.23;23.35;;;;;;;14.64;56.54;101382.78;5014902;28;20030;-76
2023/03/21 03:00:26;;;;;;;26.30;24.40;;;;;;;14.65;56.29;101377.09;5015220;28;20033;-77
2023/03/21 03:02:53;;;;;;;24.95;23.20;;;;;;;14.65;56.03;101373.56;5015061;28;20030;-76
2023/03/21 03:05:27;;;;;;;25.33;23.83;;;;;;;14.65;56.28;101377.09;5015021;28;20536;-77
2023/03/21 03:08:02;;;;;;;24.27;22.85;;;;;;;14.65;56.10;101371.66;5015405;28;20044;-76
2023/03/21 03:10:40;;;;;;;24.33;22.63;;;;;;;14.62;56.44;101372.19;5015487;28;20080;-76
2023/03/21 03:13:17;;;;;;;24.05;22.65;;;;;;;14.62;56.04;101365.94;5015471;28;20030;-77
2023/03/21 03:15:50;;;;;;;25.30;23.60;;;;;;;14.60;56.23;101363.47;5014831;28;20029;-77
2023/03/21 03:18:34;;;;;;;24.40;22.92;;;;;;;14.61;56.34;101365.09;5013232;28;20061;-77
2023/03/21 03:21:05;;;;;;;24.98;23.27;;;;;;;14.60;56.30;101368.06;5015314;28;20080;-76
2023/03/21 03:23:56;;;;;;;23.60;22.15;;;;;;;14.58;56.56;101365.59;5015242;28;20052;-76
2023/03/21 03:26:35;;;;;;;23.42;22.00;;;;;;;14.58;56.38;101362.88;5014639;28;20026;-78
2023/03/21 03:29:05;;;;;;;24.30;22.80;;;;;;;14.58;56.41;101357.44;5013429;28;20034;-77
2023/03/21 03:31:36;;;;;;;25.50;23.60;;;;;;;14.59;56.22;101355.53;5014728;28;20026;-76
2023/03/21 03:34:09;;;;;;;24.15;22.55;;;;;;;14.59;56.23;101359.09;5014742;28;20053;-77
2023/03/21 03:36:40;;;;;;;24.92;23.42;;;;;;;14.58;56.13;101357.44;5014370;28;20037;-77
2023/03/21 03:39:12;;;;;;;25.70;23.90;;;;;;;14.58;56.11;101354.72;5014546;28;20083;-75
2023/03/21 03:41:49;;;;;;;23.38;21.98;;;;;;;14.58;56.57;101360.16;5012844;28;20057;-76
2023/03/21 03:44:15;;;;;;;23.17;21.80;;;;;;;14.58;56.52;101352.00;5014565;28;20382;-77
2023/03/21 03:46:54;;;;;;;25.63;24.02;;;;;;;14.59;56.39;101350.09;5014368;28;20458;-77
2023/03/21 03:49:26;;;;;;;23.55;22.23;;;;;;;14.59;56.21;101344.66;5013984;28;20025;-75
2023/03/21 03:52:03;;;;;;;25.60;23.80;;;;;;;14.58;56.26;101343.84;5014388;28;20428;-77
2023/03/21 03:54:35;;;;;;;25.20;23.60;;;;;;;14.57;56.23;101344.94;5014681;28;20121;-77
2023/03/21 03:57:02;;;;;;;25.75;23.88;;;;;;;14.58;56.25;101334.88;5013988;28;20467;-77
2023/03/21 03:59:27;;;;;;;23.70;22.10;;;;;;;14.57;56.51;101333.25;5013996;28;20065;-77
2023/03/21 04:01:53;;;;;;;25.27;23.30;;;;;;;14.57;56.49;101334.06;5013216;28;20084;-76
2023/03/21 04:04:21;;;;;;;23.40;21.77;;;;;;;14.57;56.25;101330.53;5014224;28;20482;-77
2023/03/21 04:06:50;;;;;;;26.23;24.48;;;;;;;14.57;56.26;101334.06;5012662;28;20560;-77
2023/03/21 04:09:16;;;;;;;23.80;22.05;;;;;;;14.57;56.06;101334.06;5014091;28;20034;-76
2023/03/21 04:11:42;;;;;;;24.90;23.23;;;;;;;14.57;56.05;101331.34;5014023;28;20042;-77
2023/03/21 04:14:08;;;;;;;23.65;21.80;;;;;;;14.56;56.32;101329.69;5013518;28;20486;-77
2023/03/21 04:16:33;;;;;;;22.58;21.27;;;;;;;14.56;56.52;101326.97;5013858;28;20124;-77
2023/03/21 04:18:59;;;;;;;24.73;23.02;;;;;;;14.56;56.42;101318.00;5013498;28;20108;-76
2023/03/21 04:21:24;;;;;;;23.95;22.45;;;;;;;14.56;56.42;101320.72;5013156;28;20136;-77
2023/03/21 04:23:53;;;;;;;24.00;22.23;;;;;;;14.54;56.41;101323.72;5013659;28;20033;-75
2023/03/21 04:26:20;;;;;;;23.23;21.30;;;;;;;14.54;56.34;101315.56;5012533;28;20046;-77
2023/03/21 04:28:45;;;;;;;24.88;22.90;;;;;;;14.54;56.31;101307.41;5014107;28;20447;-76
2023/03/21 04:31:12;;;;;;;24.73;23.10;;;;;;;14.55;56.17;101308.22;5013286;28;20117;-76
2023/03/21 04:33:40;;;;;;;24.30;22.70;;;;;;;14.55;56.16;101310.94;5013687;28;20091;-75
2023/03/21 04:36:08;;;;;;;22.33;20.83;;;;;;;14.54;56.41;101303.84;5012356;28;20034;-77
2023/03/21 04:38:35;;;;;;;24.55;22.48;;;;;;;14.55;56.46;101303.59;5013297;28;20489;-77
2023/03/21 04:41:01;;;;;;;25.50;23.80;;;;;;;14.54;56.24;101306.56;5012959;28;20058;-75
2023/03/21 04:43:27;;;;;;;24.83;23.23;;;;;;;14.55;56.05;101297.34;5012402;28;20053;-77
2023/03/21 04:45:53;;;;;;;27.08;25.33;;;;;;;14.54;56.46;101304.69;5013483;28;20057;-76
2023/03/21 04:48:19;;;;;;;24.02;22.42;;;;;;;14.53;56.34;101303.03;5013601;28;20030;-77
2023/03/21 04:50:45;;;;;;;23.00;21.50;;;;;;;14.53;56.30;101291.31;5013400;28;20104;-77
2023/03/21 04:53:10;;;;;;;26.52;24.27;;;;;;;14.53;56.37;101292.16;5018137;28;20034;-76
2023/03/21 04:55:39;;;;;;;24.52;23.10;;;;;;;14.53;56.25;101291.31;5017754;28;20459;-76
2023/03/21 04:58:05;;;;;;;25.17;23.48;;;;;;;14.52;56.44;101287.78;5017355;28;20052;-76
2023/03/21 05:00:31;;;;;;;23.17;21.63;;;;;;;14.53;56.17;101286.72;5017807;28;20070;-77
2023/03/21 05:02:57;;;;;;;27.25;24.15;;;;;;;14.52;56.26;101276.06;5017189;28;20102;-76
2023/03/21 05:05:23;;;;;;;23.02;21.52;;;;;;;14.52;56.34;101279.63;5017213;28;20034;-77
2023/03/21 05:07:49;;;;;;;25.02;23.35;;;;;;;14.52;56.20;101284.22;5017153;28;20094;-77
2023/03/21 05:10:15;;;;;;;22.83;21.38;;;;;;;14.52;56.33;101289.66;5017183;28;20141;-77
2023/03/21 05:12:40;;;;;;;24.80;23.00;;;;;;;14.50;56.03;101281.75;5017000;28;20034;-77
2023/03/21 05:15:06;;;;;;;25.48;23.98;;;;;;;14.50;56.05;101281.75;5017298;28;20462;-77
2023/03/21 05:17:32;;;;;;;23.20;21.40;;;;;;;14.50;56.04;101287.19;5016018;28;20030;-77
2023/03/21 05:19:57;;;;;;;25.95;24.08;;;;;;;14.50;56.53;101284.47;5015800;28;20040;-77
2023/03/21 05:22:25;;;;;;;25.15;23.38;;;;;;;14.49;56.14;101286.38;5017125;28;20496;-76
2023/03/21 05:24:54;;;;;;;25.55;24.05;;;;;;;14.50;56.36;101281.75;5016926;28;20540;-77
2023/03/21 05:27:35;;;;;;;24.27;22.90;;;;;;;14.49;56.01;101288.28;5016864;28;20030;-75
2023/03/21 05:30:10;;;;;;;24.50;22.70;;;;;;;14.48;56.14;101281.19;5016989;28;20042;-77
2023/03/21 05:32:35;;;;;;;24.65;22.70;;;;;;;14.46;56.28;101275.19;5016593;28;20034;-76
2023/03/21 05:35:01;;;;;;;25.58;23.67;;;;;;;14.47;56.49;101276.84;5015338;28;20120;-76
2023/03/21 05:37:26;;;;;;;23.67;21.95;;;;;;;14.47;56.50;101283.09;5016950;28;20029;-76
2023/03/21 05:39:52;;;;;;;25.90;24.33;;;;;;;14.47;56.24;101280.38;5016480;28;20030;-76
2023/03/21 05:42:18;;;;;;;22.88;21.45;;;;;;;14.48;56.12;101281.19;5016865;28;20057;-76
2023/03/21 05:44:44;;;;;;;23.60;22.10;;;;;;;14.47;56.20;101283.09;5017245;28;20068;-76
2023/03/21 05:47:15;;;;;;;23.08;21.58;;;;;;;14.47;56.09;101277.66;5016862;28;20386;-76
2023/03/21 05:49:40;;;;;;;24.23;22.13;;;;;;;14.47;56.08;101283.09;5016769;28;20044;-76
2023/03/21 05:52:07;;;;;;;25.20;23.27;;;;;;;14.47;56.42;101279.56;5016183;28;20034;-76
2023/03/21 05:54:32;;;;;;;22.90;21.40;;;;;;;14.48;56.25;101283.91;5016365;28;20030;-74
2023/03/21 05:56:58;;;;;;;25.13;23.05;;;;;;;14.48;56.20;101281.19;5016123;28;20398;-77
2023/03/21 05:59:23;;;;;;;22.42;21.23;;;;;;;14.47;56.38;101277.66;5016331;28;20378;-78
2023/03/21 06:01:49;;;;;;;24.30;22.75;;;;;;;14.48;56.31;101284.72;5015896;28;20041;-76
2023/03/21 06:04:14;;;;;;;22.50;21.05;;;;;;;14.48;55.91;101281.19;5015077;28;20417;-76
2023/03/21 06:06:40;;;;;;;24.20;22.60;;;;;;;14.48;56.25;101278.47;5016066;28;20044;-78
2023/03/21 06:09:06;;;;;;;26.10;24.23;;;;;;;14.46;56.32;101278.75;5015983;28;20068;-77
2023/03/21 06:11:36;;;;;;;22.73;21.27;;;;;;;14.47;56.39;101279.56;5015920;28;20100;-77
2023/03/21 06:14:02;;;;;;;25.25;23.73;;;;;;;14.46;56.44;101277.91;5016241;28;20036;-77
2023/03/21 06:16:28;;;;;;;22.30;21.15;;;;;;;14.46;56.22;101276.03;5015863;28;20099;-79
2023/03/21 06:18:54;;;;;;;22.23;21.00;;;;;;;14.47;56.07;101282.28;5016086;28;20034;-80
2023/03/21 06:21:20;;;;;;;23.30;21.95;;;;;;;14.46;56.18;101278.75;5015845;28;20135;-77
2023/03/21 06:23:46;;;;;;;23.05;21.67;;;;;;;14.47;56.32;101285.00;5014265;28;20113;-79
2023/03/21 06:26:12;;;;;;;22.55;20.77;;;;;;;14.47;56.15;101287.72;5016032;28;20533;-78
2023/03/21 06:28:38;;;;;;;23.02;21.48;;;;;;;14.47;56.24;101293.16;5015872;28;20089;-78
2023/03/21 06:31:03;;;;;;;24.90;23.20;;;;;;;14.47;56.02;101287.72;5015163;28;20037;-77
2023/03/21 06:33:29;;;;;;;22.70;21.08;;;;;;;14.47;56.41;101288.53;5016065;28;20057;-77
2023/03/21 06:35:56;;;;;;;22.35;20.85;;;;;;;14.47;56.52;101290.44;5015591;28;20034;-75
2023/03/21 06:38:23;;;;;;;22.83;21.42;;;;;;;14.47;56.44;101288.53;5015529;28;20026;-75
2023/03/21 06:40:49;;;;;;;23.20;21.83;;;;;;;14.47;56.27;101298.59;5015019;28;20054;-77
2023/03/21 06:43:15;;;;;;;22.70;21.20;;;;;;;14.47;55.98;101299.41;5015363;28;20477;-76
2023/03/21 06:45:41;;;;;;;22.70;21.30;;;;;;;14.47;56.32;101302.13;5015534;28;20030;-76
2023/03/21 06:48:07;;;;;;;26.27;24.48;;;;;;;14.47;56.28;101304.84;5014967;28;20026;-78
2023/03/21 06:50:32;;;;;;;23.67;22.13;;;;;;;14.47;56.34;101304.84;5015255;28;20040;-78
2023/03/21 06:52:58;;;;;;;22.88;21.55;;;;;;;14.47;56.44;101304.84;5015049;28;20045;-78
2023/03/21 06:55:25;;;;;;;24.30;22.73;;;;;;;14.46;56.15;101300.50;5014239;28;20494;-79
2023/03/21 06:57:56;;;;;;;23.55;22.13;;;;;;;14.47;56.17;101314.91;5013887;28;20117;-77
2023/03/21 07:00:22;;;;;;;25.83;24.10;;;;;;;14.47;56.24;101309.47;5015045;28;20062;-83
2023/03/21 07:02:49;;;;;;;24.77;23.08;;;;;;;14.48;56.09;101311.91;5015290;28;20038;-80
2023/03/21 07:05:15;;;;;;;24.38;22.80;;;;;;;14.49;56.20;101312.75;5014712;28;20097;-80
2023/03/21 07:07:41;;;;;;;22.95;21.35;;;;;;;14.47;56.35;101315.72;5013392;28;20037;-77
2023/03/21 07:10:07;;;;;;;24.27;22.88;;;;;;;14.47;56.46;101314.91;5014792;28;20026;-79
2023/03/21 07:12:34;;;;;;;23.92;22.33;;;;;;;14.47;56.38;101315.72;5014054;28;20033;-80
2023/03/21 07:15:01;;;;;;;24.35;22.65;;;;;;;14.46;56.43;101307.78;5015243;28;20030;-80
2023/03/21 07:17:26;;;;;;;23.45;22.08;;;;;;;14.46;56.14;101308.66;5014862;28;20068;-78
2023/03/21 07:19:52;;;;;;;23.73;22.23;;;;;;;14.48;56.17;101302.94;5014477;28;20061;-76
2023/03/21 07:22:17;;;;;;;23.45;22.00;;;;;;;14.47;56.28;101288.53;5014942;28;20038;-80
2023/03/21 07:24:43;;;;;;;24.13;22.52;;;;;;;14.49;56.49;101293.72;5013451;28;20045;-80
2023/03/21 07:27:08;;;;;;;24.52;22.60;;;;;;;14.48;56.47;101300.22;5013628;28;20355;-78
2023/03/21 07:29:34;;;;;;;25.10;23.20;;;;;;;14.48;56.03;101297.50;5013366;28;20368;-77
2023/03/21 07:31:59;;;;;;;23.58;22.17;;;;;;;14.49;56.30;101302.69;5014480;28;20474;-76
2023/03/21 07:34:26;;;;;;;24.55;22.90;;;;;;;14.51;56.15;101291.53;5014388;28;20030;-79
2023/03/21 07:36:51;;;;;;;23.90;21.88;;;;;;;14.50;56.07;101293.44;5014539;28;20466;-77
2023/03/21 07:39:18;;;;;;;24.10;22.50;;;;;;;14.49;56.13;101286.38;5013240;28;20083;-79
2023/03/21 07:41:43;;;;;;;24.27;22.63;;;;;;;14.51;56.33;101283.38;5014657;28;20058;-79
2023/03/21 07:44:09;;;;;;;24.65;23.05;;;;;;;14.49;56.26;101286.38;5014470;28;20088;-79
2023/03/21 07:46:34;;;;;;;23.00;21.60;;;;;;;14.50;56.29;101279.84;5014750;28;20109;-80
2023/03/21 07:49:00;;;;;;;24.17;22.70;;;;;;;14.50;56.36;101276.31;5014566;28;20029;-78
2023/03/21 07:51:27;;;;;;;24.00;22.42;;;;;;;14.50;56.23;101282.56;5013064;28;20383;-78
2023/03/21 07:53:52;;;;;;;23.20;21.77;;;;;;;14.50;56.04;101270.88;5014318;28;20525;-78
2023/03/21 07:56:17;;;;;;;26.02;24.23;;;;;;;14.49;56.38;101263.81;5014227;28;20440;-78
2023/03/21 07:58:43;;;;;;;23.10;21.67;;;;;;;14.49;56.25;101261.91;5014326;28;20060;-79
2023/03/21 08:01:08;;;;;;;27.10;24.38;;;;;;;14.50;56.43;101268.97;5014268;28;20482;-78
2023/03/21 08:03:33;;;;;;;25.05;23.23;;;;;;;14.50;56.32;101262.72;5012834;28;20034;-80
2023/03/21 08:06:02;;;;;;;23.80;22.35;;;;;;;14.49;56.42;101261.91;5014420;28;20034;-79
2023/03/21 08:08:28;;;;;;;23.60;21.77;;;;;;;14.50;56.32;101260.00;5014444;28;20142;-77
2023/03/21 08:10:53;;;;;;;23.92;22.42;;;;;;;14.50;56.36;101263.53;5014210;28;20531;-76
2023/03/21 08:13:18;;;;;;;26.95;24.50;;;;;;;14.50;56.25;101260.00;5013933;28;20030;-80
2023/03/21 08:15:44;;;;;;;25.80;24.08;;;;;;;14.51;56.35;101261.63;5014072;28;20394;-78
2023/03/21 08:18:10;;;;;;;25.38;23.67;;;;;;;14.51;56.22;101256.19;5014376;28;20030;-78
2023/03/21 08:20:36;;;;;;;23.00;21.67;;;;;;;14.50;56.21;101249.13;5013768;28;20049;-77
2023/03/21 08:23:01;;;;;;;25.27;23.65;;;;;;;14.51;56.28;101248.06;5013789;28;20390;-81
2023/03/21 08:25:26;;;;;;;24.27;22.63;;;;;;;14.51;56.44;101245.34;5013373;28;20409;-79
2023/03/21 08:27:52;;;;;;;27.20;24.92;;;;;;;14.52;56.36;101246.19;5013393;28;20034;-78
2023/03/21 08:30:24;;;;;;;26.23;24.42;;;;;;;14.52;56.28;101240.75;5013415;28;20065;-78
2023/03/21 08:32:50;;;;;;;23.50;21.88;;;;;;;14.53;56.21;101236.94;5013738;28;20036;-79
2023/03/21 08:35:18;;;;;;;24.17;22.60;;;;;;;14.52;56.37;101233.41;5013671;28;20038;-78
2023/03/21 08:37:43;;;;;;;23.15;21.80;;;;;;;14.52;56.13;101227.97;5013739;28;20032;-77
2023/03/21 08:40:15;;;;;;;24.95;23.25;;;;;;;14.53;56.24;101228.78;5013528;28;20121;-76
2023/03/21 08:42:41;;;;;;;23.55;21.65;;;;;;;14.52;56.32;101225.25;5013586;28;20130;-78
2023/03/21 08:45:08;;;;;;;25.35;23.55;;;;;;;14.53;56.10;101221.47;5013253;28;20474;-76
2023/03/21 08:47:34;;;;;;;25.00;23.35;;;;;;;14.53;56.42;101226.91;5014223;28;20386;-76
2023/03/21 08:49:59;;;;;;;24.63;23.13;;;;;;;14.52;56.28;101222.53;5013932;28;20523;-79
2023/03/21 08:52:26;;;;;;;26.52;24.30;;;;;;;14.53;56.42;101223.34;5013397;28;20498;-79
2023/03/21 08:54:52;;;;;;;24.42;22.98;;;;;;;14.53;56.40;101216.03;5013566;28;20122;-79
2023/03/21 08:57:17;;;;;;;27.40;25.50;;;;;;;14.53;56.39;101215.19;5013537;28;20042;-81
2023/03/21 08:59:43;;;;;;;23.08;21.67;;;;;;;14.53;56.41;101216.03;5013416;28;20038;-77
2023/03/21 09:02:12;;;;;;;22.80;21.35;;;;;;;14.55;56.22;101216.59;5012199;28;20073;-78
2023/03/21 09:04:38;;;;;;;24.00;22.63;;;;;;;14.55;56.25;101221.22;5013103;28;20034;-80
2023/03/21 09:07:04;;;;;;;24.90;23.20;;;;;;;14.55;56.50;101216.59;5013181;28;20037;-81
2023/03/21 09:09:30;;;;;;;23.42;22.02;;;;;;;14.56;56.08;101223.66;5012039;28;20084;-79
2023/03/21 09:11:55;;;;;;;23.83;22.40;;;;;;;14.56;56.25;101218.22;5013537;28;20038;-81
2023/03/21 09:14:21;;;;;;;25.80;24.20;;;;;;;14.56;56.30;101210.06;5013226;28;20040;-77
2023/03/21 09:16:46;;;;;;;24.45;22.48;;;;;;;14.57;56.17;101217.16;5013199;28;20065;-80
2023/03/21 09:19:12;;;;;;;23.40;21.90;;;;;;;14.57;55.91;101208.19;5012846;28;20034;-79
2023/03/21 09:21:38;;;;;;;24.88;23.08;;;;;;;14.58;56.22;101205.19;4995758;28;20034;-78
2023/03/21 09:24:05;;;;;;;24.02;22.35;;;;;;;14.58;56.08;101202.47;5013221;28;20447;-79
2023/03/21 09:26:32;;;;;;;24.25;22.55;;;;;;;14.59;56.28;101206.00;5013657;28;20052;-82
2023/03/21 09:28:59;;;;;;;25.35;23.35;;;;;;;14.59;56.33;101200.56;5013896;28;20041;-79
2023/03/21 09:31:27;;;;;;;26.15;24.25;;;;;;;14.60;56.24;101197.63;5013043;28;20042;-78
2023/03/21 09:33:54;;;;;;;23.55;22.05;;;;;;;14.60;55.98;101200.34;5011923;28;20046;-78
2023/03/21 09:36:20;;;;;;;23.85;22.17;;;;;;;14.61;56.07;101206.59;5013026;28;20109;-78
2023/03/21 09:38:47;;;;;;;23.55;22.13;;;;;;;14.61;56.43;101201.97;5015909;28;20034;-80
2023/03/21 09:41:44;;;;;;;24.83;23.27;;;;;;;14.60;56.19;101200.34;5016707;28;20045;-79
2023/03/21 09:44:12;;;;;;;24.67;23.15;;;;;;;14.59;56.14;101198.69;5017047;28;20050;-78
2023/03/21 09:46:49;;;;;;;22.13;20.92;;;;;;;14.59;56.15;101195.13;5016203;28;20057;-79
2023/03/21 09:49:29;;;;;;;26.05;24.52;;;;;;;14.60;56.18;101186.75;5016709;28;20061;-79
2023/03/21 09:52:04;;;;;;;23.35;21.65;;;;;;;14.61;56.55;101193.81;5017070;28;20029;-80
2023/03/21 09:54:36;;;;;;;23.77;22.10;;;;;;;14.62;56.44;101189.22;5016355;28;20056;-79
2023/03/21 09:57:18;;;;;;;22.92;21.55;;;;;;;14.62;56.34;101184.59;5016669;28;20036;-80
2023/03/21 09:59:45;;;;;;;23.70;22.02;;;;;;;14.64;56.39;101181.59;5016316;28;20036;-79
2023/03/21 10:02:34;;;;;;;24.13;22.73;;;;;;;14.64;56.30;101184.31;5015136;28;20042;-79
2023/03/21 10:05:01;;;;;;;22.08;20.83;;;;;;;14.64;56.58;101187.03;5016170;28;20037;-78
2023/03/21 10:07:30;;;;;;;25.58;23.80;;;;;;;14.64;56.66;101179.72;5015803;28;20112;-78
2023/03/21 10:10:00;;;;;;;23.52;22.05;;;;;;;14.68;56.44;101167.22;5014790;28;20022;-79
2023/03/21 10:12:29;;;;;;;24.95;23.08;;;;;;;14.70;56.35;101167.78;5016442;28;20030;-78
2023/03/21 10:14:57;;;;;;;24.30;22.35;;;;;;;14.71;56.51;101169.41;5015907;28;20040;-79
2023/03/21 10:17:32;;;;;;;24.80;22.67;;;;;;;14.72;56.34;101170.25;5016412;28;20447;-77
2023/03/21 10:20:10;;;;;;;24.02;22.45;;;;;;;14.74;56.73;101172.69;5016199;28;20257;-79
2023/03/21 10:22:36;;;;;;;23.10;21.42;;;;;;;14.76;56.60;101167.81;5016300;28;20033;-77
2023/03/21 10:25:03;;;;;;;24.55;22.70;;;;;;;14.76;56.66;101167.81;5015943;28;20053;-80
2023/03/21 10:27:30;;;;;;;26.23;24.42;;;;;;;14.77;56.62;101164.03;5015981;28;20030;-78
2023/03/21 10:29:57;;;;;;;22.73;21.27;;;;;;;14.76;56.86;101165.91;5015452;28;20061;-78
2023/03/21 10:32:22;;;;;;;23.63;22.00;;;;;;;14.78;56.75;101165.66;5014385;28;20381;-79
2023/03/21 10:34:54;;;;;;;22.95;21.55;;;;;;;14.79;56.85;101153.69;5015971;28;20033;-79
2023/03/21 10:37:20;;;;;;;22.60;21.15;;;;;;;14.80;56.81;101166.25;5015852;28;20021;-78
2023/03/21 10:39:49;;;;;;;23.35;21.63;;;;;;;14.82;56.79;101167.63;5015387;28;20037;-79
2023/03/21 10:42:30;;;;;;;22.77;21.48;;;;;;;14.81;56.77;101174.13;5014993;28;20046;-78
2023/03/21 10:44:56;;;;;;;24.00;22.52;;;;;;;14.81;57.06;101174.13;5015461;28;20030;-76
2023/03/21 10:47:32;;;;;;;25.75;23.90;;;;;;;14.81;56.81;101170.59;5015304;28;20099;-78
2023/03/21 10:50:07;;;;;;;23.23;21.83;;;;;;;14.83;57.02;101168.44;5014781;28;20105;-76
2023/03/21 10:52:36;;;;;;;23.90;22.30;;;;;;;14.86;56.79;101167.91;5014004;28;20032;-79
2023/03/21 10:55:24;;;;;;;24.80;22.88;;;;;;;14.86;56.79;101148.88;5015528;28;20049;-75
2023/03/21 10:58:06;;;;;;;;;;;;;;;14.85;57.08;101158.13;5015612;28;20466;-78
2023/03/21 11:00:40;;;;;;;23.38;21.80;;;;;;;14.86;57.06;101146.16;5014822;28;19917;-79
2023/03/21 11:03:19;;;;;;;21.63;20.30;;;;;;;14.85;57.59;101142.63;5014033;28;20152;-78
2023/03/21 11:05:45;;;;;;;21.83;20.70;;;;;;;14.86;57.31;101154.31;5014895;28;20113;-80
2023/03/21 11:08:14;;;;;;;23.67;22.13;;;;;;;14.87;57.43;101162.22;5014837;28;20066;-78
2023/03/21 11:10:58;;;;;;;21.70;20.58;;;;;;;14.89;57.40;101161.94;5014700;28;20068;-78
2023/03/21 11:13:31;;;;;;;22.88;21.55;;;;;;;14.94;57.09;101159.25;5013655;28;20366;-78
2023/03/21 11:16:05;;;;;;;25.67;24.02;;;;;;;14.96;57.23;101145.41;5015052;28;20048;-79
2023/03/21 11:18:34;;;;;;;25.23;23.63;;;;;;;14.99;57.27;101148.41;5014251;28;20394;-77